Aviation Digital Data Service (ADDS)

Output produced by TAFs form (2122 UTC 19 November 2017)
found at http://aviationweather.gov/adds/tafs/
 
KPUB 192042Z 1921/2018 20007KT P6SM BKN250 
     FM200400 29007KT P6SM SKC 
     FM201700 28010KT P6SM SCT250